Time;durP1;ratioP1;P1;durP2;ratioP2;P2;SDS_P1;SDS_P2;PMS_P1;PMS_P2;Temp;Humidity;BMP_temperature;BMP_pressure;BME280_temperature;BME280_humidity;BME280_pressure;Samples;Min_cycle;Max_cycle;Signal;HPM_P1;HPM_P2
2021/12/04 00:01:16;;;;;;;4.13;3.47;;;;;;;3.38;100.00;99747.63;4980464;28;20027;-79
2021/12/04 00:03:42;;;;;;;6.88;4.05;;;;;;;3.33;100.00;99731.72;4956007;28;20499;-79
2021/12/04 00:06:42;;;;;;;7.68;3.10;;;;;;;3.35;100.00;99721.66;4964278;28;20039;-79
2021/12/04 00:09:04;;;;;;;6.13;3.58;;;;;;;3.41;100.00;99733.88;4966047;28;20047;-79
2021/12/04 00:11:30;;;;;;;9.63;3.88;;;;;;;3.39;100.00;99728.56;4966728;28;20101;-79
2021/12/04 00:13:56;;;;;;;5.15;3.97;;;;;;;3.40;100.00;99727.63;4964770;28;20086;-79
2021/12/04 00:16:21;;;;;;;4.53;3.58;;;;;;;3.41;100.00;99717.66;4948484;29;20023;-79
2021/12/04 00:18:47;;;;;;;4.53;3.38;;;;;;;3.43;100.00;99719.28;4981427;28;20031;-79
2021/12/04 00:21:12;;;;;;;4.05;3.60;;;;;;;3.44;100.00;99718.34;4978544;28;20047;-79
2021/12/04 00:23:38;;;;;;;5.07;3.60;;;;;;;3.45;100.00;99716.47;4944582;28;20027;-79
2021/12/04 00:26:04;;;;;;;4.65;3.22;;;;;;;3.46;100.00;99704.66;4963195;28;20043;-79
2021/12/04 00:28:30;;;;;;;3.28;2.97;;;;;;;3.43;100.00;99691.38;4963163;28;20035;-79
2021/12/04 00:30:56;;;;;;;5.82;3.40;;;;;;;3.43;100.00;99678.72;4961100;28;20028;-79
2021/12/04 00:33:28;;;;;;;8.68;3.60;;;;;;;3.45;100.00;99686.72;4973869;28;20032;-78
2021/12/04 00:35:58;;;;;;;3.33;3.00;;;;;;;3.44;100.00;99672.34;4965643;28;20035;-79
2021/12/04 00:49:18;;;;;;;4.95;3.28;;;;;;;3.45;100.00;99678.59;4979744;28;20060;-79
2021/12/04 00:51:49;;;;;;;7.07;3.40;;;;;;;3.42;100.00;99673.41;4962730;28;20594;-78
2021/12/04 00:54:15;;;;;;;3.75;3.35;;;;;;;3.48;100.00;99673.84;4964233;29;20094;-79
2021/12/04 00:56:42;;;;;;;5.22;3.50;;;;;;;3.53;100.00;99681.66;4946661;29;20051;-79
2021/12/04 00:59:08;;;;;;;3.92;3.50;;;;;;;3.50;100.00;99668.31;4979897;28;20090;-80
2021/12/04 01:01:37;;;;;;;5.15;3.35;;;;;;;3.55;100.00;99671.56;4974339;28;20036;-80
2021/12/04 01:04:03;;;;;;;7.07;4.78;;;;;;;3.55;100.00;99668.00;4962117;28;20594;-79
2021/12/04 01:06:28;;;;;;;4.40;3.83;;;;;;;3.56;100.00;99669.72;4966205;28;20090;-79
2021/12/04 01:08:54;;;;;;;7.05;4.47;;;;;;;3.50;100.00;99668.31;4973370;28;20031;-79
2021/12/04 01:11:19;;;;;;;6.95;4.70;;;;;;;3.49;100.00;99663.88;4980587;28;20094;-79
2021/12/04 01:13:45;;;;;;;7.03;4.25;;;;;;;3.54;100.00;99671.69;4945072;29;20486;-79
2021/12/04 01:16:11;;;;;;;5.80;4.68;;;;;;;3.50;100.00;99663.78;4953358;28;20063;-79
2021/12/04 01:18:37;;;;;;;5.07;4.40;;;;;;;3.46;100.00;99650.56;4977524;28;20467;-79
2021/12/04 01:21:04;;;;;;;8.27;4.70;;;;;;;3.55;100.00;99670.72;4944023;28;21735;-79
2021/12/04 01:23:29;;;;;;;6.85;4.47;;;;;;;3.53;100.00;99673.53;4987451;28;20031;-79
2021/12/04 01:25:54;;;;;;;6.45;4.82;;;;;;;3.54;100.00;99668.97;4956957;28;20110;-79
2021/12/04 01:28:20;;;;;;;6.30;4.93;;;;;;;3.54;100.00;99677.94;4946354;28;20062;-80
2021/12/04 01:30:45;;;;;;;8.18;4.63;;;;;;;3.50;100.00;99665.63;4963024;29;20098;-79
2021/12/04 01:33:11;;;;;;;8.38;4.82;;;;;;;3.48;100.00;99663.03;4976026;28;20044;-79
2021/12/04 01:35:36;;;;;;;5.35;4.35;;;;;;;3.50;100.00;99660.22;4957056;28;20035;-79
2021/12/04 01:38:02;;;;;;;6.22;5.00;;;;;;;3.53;100.00;99665.41;4978801;28;20031;-79
2021/12/04 01:40:28;;;;;;;7.88;5.07;;;;;;;3.39;100.00;99642.00;4964369;28;20039;-80
2021/12/04 01:42:53;;;;;;;5.57;4.95;;;;;;;3.55;100.00;99663.47;4963767;28;20446;-80
2021/12/04 01:45:20;;;;;;;6.18;5.30;;;;;;;3.54;100.00;99658.16;4962412;28;20046;-79
2021/12/04 01:47:46;;;;;;;6.82;5.53;;;;;;;3.55;100.00;99662.59;4976200;28;20059;-80
2021/12/04 01:50:12;;;;;;;6.13;4.90;;;;;;;3.56;100.00;99665.19;4974147;28;20431;-79
2021/12/04 01:52:38;;;;;;;6.78;5.80;;;;;;;3.59;100.00;99659.59;4963938;28;20035;-79
2021/12/04 01:55:04;;;;;;;15.52;6.22;;;;;;;3.50;100.00;99650.25;4964569;28;20396;-79
2021/12/04 01:57:31;;;;;;;6.78;5.28;;;;;;;3.56;100.00;99650.78;4945945;29;20041;-79
2021/12/04 01:59:57;;;;;;;6.82;5.18;;;;;;;3.58;100.00;99648.84;4958090;28;20110;-80
2021/12/04 02:02:22;;;;;;;7.47;6.32;;;;;;;3.58;100.00;99651.56;4963157;29;20034;-79
2021/12/04 02:04:48;;;;;;;7.68;6.03;;;;;;;3.55;100.00;99647.22;4962992;28;20046;-79
2021/12/04 02:07:15;;;;;;;8.70;6.10;;;;;;;3.58;100.00;99640.75;4964964;28;20050;-78
2021/12/04 02:09:41;;;;;;;8.27;6.00;;;;;;;3.60;100.00;99639.66;4972683;28;22083;-79
2021/12/04 02:12:07;;;;;;;8.25;6.47;;;;;;;3.59;100.00;99642.44;4979430;28;20090;-80
2021/12/04 02:14:34;;;;;;;9.27;6.10;;;;;;;3.57;100.00;99645.25;4961492;28;20510;-79
2021/12/04 02:17:00;;;;;;;8.32;6.03;;;;;;;3.60;100.00;99646.91;4958269;29;20438;-79
2021/12/04 02:19:26;;;;;;;8.70;5.72;;;;;;;3.61;100.00;99644.09;4961652;28;20714;-79
2021/12/04 02:21:52;;;;;;;9.43;7.05;;;;;;;3.60;100.00;99646.91;4965146;29;20471;-79
2021/12/04 02:24:17;;;;;;;7.25;6.20;;;;;;;3.61;100.00;99629.69;4963651;28;20023;-80
2021/12/04 02:26:45;;;;;;;9.60;6.85;;;;;;;3.60;100.00;99626.09;4961348;28;20070;-79
2021/12/04 02:29:11;;;;;;;11.55;6.72;;;;;;;3.59;100.00;99612.69;4977135;28;20046;-79
2021/12/04 02:31:36;;;;;;;7.15;6.28;;;;;;;3.57;100.00;99599.25;4953984;28;20063;-80
2021/12/04 02:34:02;;;;;;;9.45;6.35;;;;;;;3.58;100.00;99592.03;4962349;29;20038;-80
2021/12/04 02:36:28;;;;;;;17.17;7.00;;;;;;;3.58;100.00;99583.91;4962273;28;20059;-80
2021/12/04 02:38:53;;;;;;;7.32;6.47;;;;;;;3.59;100.00;99583.81;4960548;28;20035;-80
2021/12/04 02:41:20;;;;;;;9.45;6.63;;;;;;;3.54;100.00;99579.66;4955020;28;20042;-80
2021/12/04 02:43:47;;;;;;;10.45;6.72;;;;;;;3.58;100.00;99575.78;4953718;29;20019;-79
2021/12/04 02:46:17;;;;;;;11.52;7.75;;;;;;;3.59;100.00;99577.50;4978325;28;20047;-79
2021/12/04 02:48:45;;;;;;;11.70;7.35;;;;;;;3.54;100.00;99566.16;4960952;29;20051;-79
2021/12/04 02:51:10;;;;;;;12.27;7.50;;;;;;;3.57;100.00;99571.34;4963091;28;20042;-79
2021/12/04 02:53:37;;;;;;;10.55;7.45;;;;;;;3.59;100.00;99569.38;4975534;28;20040;-80
2021/12/04 02:56:05;;;;;;;7.82;6.90;;;;;;;3.61;100.00;99564.75;4960792;28;20075;-80
2021/12/04 02:58:33;;;;;;;8.10;7.00;;;;;;;3.61;100.00;99560.19;4973599;28;20128;-79
2021/12/04 03:01:00;;;;;;;8.88;6.85;;;;;;;3.59;100.00;99562.16;4975412;28;20027;-79
2021/12/04 03:03:26;;;;;;;8.05;6.63;;;;;;;3.60;100.00;99558.44;4961414;28;20079;-79
2021/12/04 03:05:51;;;;;;;10.00;6.68;;;;;;;3.59;100.00;99562.16;4962071;28;20046;-78
2021/12/04 03:08:18;;;;;;;11.95;6.35;;;;;;;3.61;100.00;99567.47;4965827;28;20413;-79
2021/12/04 03:10:44;;;;;;;10.38;6.82;;;;;;;3.63;100.00;99565.50;4980579;28;20083;-79
2021/12/04 03:13:10;;;;;;;10.40;7.10;;;;;;;3.60;100.00;99549.47;4981551;28;20023;-79
2021/12/04 03:15:44;;;;;;;8.68;7.13;;;;;;;3.63;100.00;99541.16;4958582;29;20046;-79
2021/12/04 03:18:10;;;;;;;11.30;8.25;;;;;;;3.60;100.00;99538.66;4974313;28;20034;-79
2021/12/04 03:20:43;;;;;;;10.65;7.50;;;;;;;3.61;100.00;99530.44;4968733;29;20062;-79
2021/12/04 03:23:16;;;;;;;9.65;7.32;;;;;;;3.59;100.00;99536.91;4954116;29;20031;-79
2021/12/04 03:25:45;;;;;;;10.20;7.60;;;;;;;3.61;100.00;99532.28;4980194;28;20042;-78
2021/12/04 03:28:13;;;;;;;12.57;8.50;;;;;;;3.60;100.00;99533.25;4966741;29;20035;-78
2021/12/04 03:30:46;;;;;;;12.93;8.60;;;;;;;3.63;100.00;99536.59;4960554;28;20046;-79
2021/12/04 03:41:07;;;;;;;10.55;8.50;;;;;;;3.62;100.00;99517.75;4952873;29;20086;-78
2021/12/04 03:43:33;;;;;;;14.65;8.45;;;;;;;3.62;100.00;99518.63;4966228;28;20475;-79
2021/12/04 03:46:01;;;;;;;13.45;8.85;;;;;;;3.64;100.00;99513.09;4987635;28;20035;-78
2021/12/04 03:51:05;;;;;;;20.95;8.93;;;;;;;3.62;100.00;99515.94;4964870;29;20463;-78
2021/12/04 03:53:31;;;;;;;12.50;8.68;;;;;;;3.63;100.00;99514.94;4963586;29;20043;-78
2021/12/04 03:55:56;;;;;;;11.07;8.27;;;;;;;3.63;100.00;99509.53;4982435;28;20075;-78
2021/12/04 03:58:23;;;;;;;13.73;7.95;;;;;;;3.65;100.00;99507.56;4962696;29;20095;-79
2021/12/04 04:00:49;;;;;;;12.80;8.23;;;;;;;3.63;100.00;99514.06;4972235;28;20126;-79
2021/12/04 04:03:14;;;;;;;10.73;7.70;;;;;;;3.62;100.00;99505.09;4981119;28;20118;-79
2021/12/04 04:05:40;;;;;;;10.02;7.18;;;;;;;3.63;100.00;99506.81;4965880;28;20039;-79
2021/12/04 04:08:06;;;;;;;12.70;7.60;;;;;;;3.63;100.00;99503.25;4946804;28;20046;-79
2021/12/04 04:10:31;;;;;;;9.30;6.97;;;;;;;3.64;100.00;99504.97;4955965;28;20461;-79
2021/12/04 04:12:57;;;;;;;8.27;6.85;;;;;;;3.66;100.00;99506.59;4965244;28;20037;-79
2021/12/04 04:15:22;;;;;;;8.77;6.60;;;;;;;3.68;100.00;99507.34;4964247;28;20031;-79
2021/12/04 04:17:49;;;;;;;9.65;6.13;;;;;;;3.66;100.00;99495.78;4945595;29;20028;-79
2021/12/04 04:20:20;;;;;;;7.10;6.00;;;;;;;3.68;100.00;99499.22;4958692;28;20031;-79
2021/12/04 04:22:47;;;;;;;8.23;6.22;;;;;;;3.71;100.00;99494.59;4980845;28;20030;-79
2021/12/04 04:25:14;;;;;;;8.50;5.72;;;;;;;3.64;100.00;99486.03;4955087;28;20035;-78
2021/12/04 04:27:40;;;;;;;7.88;6.07;;;;;;;3.66;100.00;99482.25;4965100;28;20391;-78
2021/12/04 04:30:11;;;;;;;7.05;5.88;;;;;;;3.72;100.00;99488.19;4963516;28;20106;-78
2021/12/04 04:32:37;;;;;;;8.52;5.57;;;;;;;3.68;100.00;99477.56;4947585;28;20027;-78
2021/12/04 04:35:12;;;;;;;9.73;5.50;;;;;;;3.68;100.00;99479.44;4947212;28;20448;-77
2021/12/04 04:40:30;;;;;;;8.23;5.20;;;;;;;3.75;100.00;99491.53;4978092;28;20035;-79
2021/12/04 05:10:20;;;;;;;4.38;3.97;;;;;;;3.82;100.00;99478.41;4964666;28;20043;-78
2021/12/04 05:12:58;;;;;;;8.55;3.92;;;;;;;3.80;100.00;99470.38;4963577;29;20395;-78
2021/12/04 05:18:22;;;;;;;3.72;3.42;;;;;;;3.82;100.00;99471.16;4966346;28;20039;-79
2021/12/04 05:20:52;;;;;;;4.07;3.67;;;;;;;3.80;100.00;99462.25;4977958;28;20062;-79
2021/12/04 05:23:19;;;;;;;3.95;3.55;;;;;;;3.77;100.00;99472.47;4963695;28;20042;-80
2021/12/04 05:25:45;;;;;;;4.25;3.85;;;;;;;3.82;100.00;99460.34;4978076;28;20439;-79
2021/12/04 05:28:10;;;;;;;3.72;3.33;;;;;;;3.83;100.00;99459.34;4961661;28;20092;-80
2021/12/04 05:30:37;;;;;;;3.65;3.35;;;;;;;3.83;100.00;99448.50;4961349;28;20038;-78
2021/12/04 05:33:03;;;;;;;4.78;3.17;;;;;;;3.80;100.00;99451.44;4965907;28;20392;-78
2021/12/04 05:35:29;;;;;;;4.18;3.15;;;;;;;3.83;100.00;99440.38;4964015;28;20039;-78
2021/12/04 05:37:55;;;;;;;4.07;3.33;;;;;;;3.81;100.00;99436.94;4963288;28;20054;-78
2021/12/04 05:40:20;;;;;;;3.45;3.13;;;;;;;3.88;100.00;99437.34;4962708;28;20059;-78
2021/12/04 05:42:47;;;;;;;3.25;2.90;;;;;;;3.92;100.00;99443.38;4945708;29;20034;-79
2021/12/04 05:45:20;;;;;;;3.50;2.90;;;;;;;3.90;100.00;99445.34;4965139;28;20023;-79
2021/12/04 05:48:09;;;;;;;6.63;3.00;;;;;;;3.89;100.00;99444.50;4961194;28;20090;-79
2021/12/04 05:55:27;;;;;;;4.18;3.10;;;;;;;3.91;100.00;99438.97;4959725;29;20031;-78
2021/12/04 05:57:53;;;;;;;4.65;3.17;;;;;;;3.93;100.00;99447.84;4957499;29;20078;-78
2021/12/04 06:00:22;;;;;;;3.22;2.90;;;;;;;3.93;100.00;99450.53;4963878;28;20031;-78
2021/12/04 06:02:48;;;;;;;6.03;3.03;;;;;;;3.99;100.00;99445.53;4965956;28;20521;-78
2021/12/04 06:05:15;;;;;;;3.05;2.65;;;;;;;3.99;100.00;99441.97;4969960;28;20046;-78
2021/12/04 06:07:40;;;;;;;5.85;3.40;;;;;;;3.97;100.00;99446.66;4969792;28;20039;-79
2021/12/04 06:10:07;;;;;;;3.38;3.08;;;;;;;3.96;100.00;99447.59;4961952;28;20054;-79
2021/12/04 06:12:33;;;;;;;3.88;2.97;;;;;;;3.94;100.00;99439.59;4979079;28;20032;-79
2021/12/04 06:15:00;;;;;;;3.33;3.03;;;;;;;3.91;100.00;99436.25;4954196;28;20047;-79
2021/12/04 06:17:28;;;;;;;6.38;2.95;;;;;;;3.93;100.00;99439.72;4960837;29;20150;-79
2021/12/04 06:22:40;;;;;;;4.53;2.90;;;;;;;3.96;100.00;99434.94;4969377;28;20032;-79
2021/12/04 06:25:19;;;;;;;3.00;2.63;;;;;;;3.96;100.00;99434.06;4961882;29;20041;-79
2021/12/04 06:27:46;;;;;;;5.22;2.97;;;;;;;3.93;100.00;99423.47;4962298;29;20462;-78
2021/12/04 06:30:15;;;;;;;3.63;3.15;;;;;;;3.92;100.00;99419.91;4958139;28;20032;-78
2021/12/04 06:32:41;;;;;;;4.03;3.40;;;;;;;3.92;100.00;99421.72;4955651;28;20063;-79
2021/12/04 06:35:09;;;;;;;4.68;3.60;;;;;;;3.93;100.00;99424.31;4944774;28;20028;-78
2021/12/04 06:37:35;;;;;;;3.50;2.92;;;;;;;3.94;100.00;99428.78;4974268;28;20047;-79
2021/12/04 06:40:01;;;;;;;4.93;3.45;;;;;;;3.91;100.00;99430.84;4963213;28;20564;-79
2021/12/04 06:42:28;;;;;;;8.63;3.50;;;;;;;3.91;100.00;99426.28;4965738;28;20039;-78
2021/12/04 06:44:55;;;;;;;10.23;5.10;;;;;;;3.94;100.00;99428.78;4953681;28;20043;-78
2021/12/04 06:47:22;;;;;;;8.55;5.45;;;;;;;3.96;100.00;99423.25;4967400;28;20087;-78
2021/12/04 06:49:50;;;;;;;7.50;6.35;;;;;;;3.96;100.00;99413.25;4951386;28;20254;-78
2021/12/04 06:52:20;;;;;;;8.40;6.10;;;;;;;3.99;100.00;99418.44;4968626;28;20032;-79
2021/12/04 06:54:57;;;;;;;10.48;7.35;;;;;;;4.02;100.00;99418.22;4982105;28;20032;-80
2021/12/04 06:57:23;;;;;;;11.48;6.80;;;;;;;4.00;100.00;99427.44;4986497;28;20030;-78
2021/12/04 06:59:52;;;;;;;8.27;6.65;;;;;;;3.89;100.00;99428.25;4961253;28;20043;-77
2021/12/04 07:02:18;;;;;;;10.82;6.40;;;;;;;3.93;100.00;99435.16;4964091;28;20027;-78
2021/12/04 07:04:44;;;;;;;9.95;6.65;;;;;;;3.91;100.00;99437.13;4966655;29;20054;-78
2021/12/04 07:07:11;;;;;;;7.88;6.18;;;;;;;3.96;100.00;99439.50;4950722;29;20039;-78
2021/12/04 07:09:38;;;;;;;7.35;5.80;;;;;;;3.98;100.00;99448.34;4958570;28;20063;-78
2021/12/04 07:12:04;;;;;;;7.25;5.68;;;;;;;3.96;100.00;99448.47;4968115;29;20099;-77
2021/12/04 07:14:31;;;;;;;9.10;5.38;;;;;;;4.00;100.00;99441.84;4961468;29;20027;-78
2021/12/04 07:16:59;;;;;;;9.25;5.57;;;;;;;4.01;100.00;99437.28;4962524;28;20134;-80
2021/12/04 07:19:25;;;;;;;11.45;5.70;;;;;;;3.96;100.00;99434.94;4941842;29;20082;-78
2021/12/04 07:21:50;;;;;;;5.47;4.82;;;;;;;3.98;100.00;99441.09;4964728;28;20027;-78
2021/12/04 07:24:16;;;;;;;5.68;4.40;;;;;;;3.92;100.00;99443.38;4964444;28;20039;-78
2021/12/04 07:26:42;;;;;;;9.57;4.57;;;;;;;3.96;100.00;99439.50;4964828;28;20084;-78
2021/12/04 07:29:08;;;;;;;7.82;4.80;;;;;;;3.97;100.00;99438.53;4969239;28;20039;-78
2021/12/04 07:31:34;;;;;;;7.50;4.75;;;;;;;4.01;100.00;99440.00;4955697;29;20114;-78
2021/12/04 07:34:00;;;;;;;6.25;5.03;;;;;;;3.96;100.00;99436.78;4968191;29;20104;-78
2021/12/04 07:36:26;;;;;;;10.85;5.10;;;;;;;3.96;100.00;99440.34;4960381;29;20061;-78
2021/12/04 07:38:53;;;;;;;6.88;4.88;;;;;;;3.95;100.00;99437.75;4967788;28;20031;-78
2021/12/04 07:41:19;;;;;;;7.35;5.43;;;;;;;3.96;100.00;99434.06;4960299;28;20039;-79
2021/12/04 07:43:45;;;;;;;11.85;5.57;;;;;;;3.98;100.00;99434.81;4978147;28;20035;-79
2021/12/04 07:46:11;;;;;;;8.75;5.63;;;;;;;3.90;100.00;99426.41;4951362;29;20042;-78
2021/12/04 07:48:37;;;;;;;8.85;6.15;;;;;;;3.98;100.00;99424.84;4959814;28;20130;-78
2021/12/04 07:51:04;;;;;;;9.38;6.20;;;;;;;4.03;100.00;99432.63;4961991;29;20038;-78
2021/12/04 07:53:30;;;;;;;10.05;6.95;;;;;;;3.96;100.00;99426.81;4961437;28;20099;-78
2021/12/04 07:55:56;;;;;;;12.57;6.47;;;;;;;3.99;100.00;99425.72;4962176;28;20504;-79
2021/12/04 07:58:22;;;;;;;14.48;6.93;;;;;;;3.96;100.00;99418.69;4971890;28;20054;-79
2021/12/04 08:00:48;;;;;;;11.10;7.00;;;;;;;4.02;100.00;99410.09;4956855;29;20051;-79
2021/12/04 08:03:14;;;;;;;13.55;7.80;;;;;;;4.04;100.00;99410.84;4946115;29;20047;-79
2021/12/04 08:05:40;;;;;;;14.60;7.40;;;;;;;4.00;100.00;99397.66;4965657;28;20135;-79
2021/12/04 08:08:05;;;;;;;16.08;8.20;;;;;;;4.00;100.00;99409.38;4979770;28;20131;-80
2021/12/04 08:10:33;;;;;;;17.73;7.65;;;;;;;4.08;100.00;99410.63;4978813;28;20038;-79
2021/12/04 08:12:59;;;;;;;15.20;8.82;;;;;;;4.04;100.00;99408.13;4958944;29;20031;-79
2021/12/04 08:15:25;;;;;;;11.90;7.53;;;;;;;4.17;100.00;99409.94;4953708;29;20031;-79
2021/12/04 08:17:50;;;;;;;15.38;8.38;;;;;;;4.08;100.00;99405.19;4959287;28;20042;-80
2021/12/04 08:20:17;;;;;;;16.83;8.95;;;;;;;4.14;100.00;99410.16;4962975;28;20027;-78
2021/12/04 08:22:44;;;;;;;16.13;8.85;;;;;;;4.17;100.00;99409.94;4976381;28;20027;-77
2021/12/04 08:25:13;;;;;;;18.38;8.10;;;;;;;4.17;100.00;99399.09;4982658;28;20069;-78
2021/12/04 08:27:39;;;;;;;15.93;9.70;;;;;;;4.17;100.00;99399.09;4962153;28;20066;-77
2021/12/04 08:30:08;;;;;;;17.20;8.90;;;;;;;4.17;100.00;99397.25;4961730;28;20043;-77
2021/12/04 08:32:34;;;;;;;16.83;8.45;;;;;;;4.17;100.00;99385.56;4962361;28;20066;-78
2021/12/04 08:35:02;;;;;;;14.40;8.63;;;;;;;4.23;100.00;99393.19;4946946;28;20040;-78
2021/12/04 08:37:27;;;;;;;12.55;7.85;;;;;;;4.22;100.00;99397.75;4954759;29;20384;-78
2021/12/04 08:39:52;;;;;;;16.85;8.93;;;;;;;4.24;100.00;99406.59;4944515;29;20046;-78
2021/12/04 08:42:19;;;;;;;14.75;8.45;;;;;;;4.18;100.00;99387.25;4961772;29;20027;-78
2021/12/04 08:44:45;;;;;;;17.25;8.77;;;;;;;4.19;100.00;99392.56;4976649;28;20077;-78
2021/12/04 08:47:11;;;;;;;23.50;9.18;;;;;;;4.15;100.00;99372.13;4978082;28;20062;-78
2021/12/04 08:49:37;;;;;;;16.13;8.60;;;;;;;4.23;100.00;99383.22;4948141;29;20495;-78
2021/12/04 08:52:04;;;;;;;12.52;7.22;;;;;;;4.20;100.00;99375.34;4962822;28;20035;-78
2021/12/04 08:54:33;;;;;;;14.40;8.45;;;;;;;4.26;100.00;99370.44;4960608;28;20046;-78
2021/12/04 08:56:59;;;;;;;14.55;8.43;;;;;;;4.19;100.00;99367.31;4960363;28;20035;-78
2021/12/04 08:59:24;;;;;;;13.90;8.57;;;;;;;4.26;100.00;99359.59;4945559;29;20027;-78
2021/12/04 09:01:50;;;;;;;17.67;8.85;;;;;;;4.27;100.00;99364.88;4962875;28;20090;-78
2021/12/04 09:04:25;;;;;;;17.40;9.00;;;;;;;4.17;100.00;99362.03;4976591;28;20031;-78
2021/12/04 09:06:53;;;;;;;13.68;8.43;;;;;;;4.19;100.00;99346.50;4968403;28;20055;-77
2021/12/04 09:09:19;;;;;;;15.25;8.77;;;;;;;4.23;100.00;99339.88;4953258;28;20032;-78
2021/12/04 09:11:50;;;;;;;17.88;8.30;;;;;;;4.36;100.00;99355.19;4963390;28;20039;-77
2021/12/04 09:14:17;;;;;;;14.27;8.65;;;;;;;4.30;100.00;99344.84;4936575;29;20495;-77
2021/12/04 09:16:44;;;;;;;15.52;8.88;;;;;;;4.24;100.00;99344.31;4951809;28;20039;-77
2021/12/04 09:19:09;;;;;;;17.75;9.00;;;;;;;4.34;100.00;99346.31;4938900;29;20402;-77
2021/12/04 09:21:37;;;;;;;15.07;9.70;;;;;;;4.30;100.00;99350.25;4939060;28;20031;-77
2021/12/04 09:24:17;;;;;;;15.80;8.82;;;;;;;4.34;100.00;99340.88;4954558;29;20035;-77
2021/12/04 10:15:48;;;;;;;20.40;13.50;;;;;;;4.69;100.00;99302.00;4966621;28;20042;-78
2021/12/04 10:34:35;;;;;;;22.65;12.57;;;;;;;4.81;100.00;99281.19;4960144;28;20039;-78
2021/12/04 10:37:24;;;;;;;18.65;11.07;;;;;;;4.82;100.00;99275.66;4959062;28;20059;-79
2021/12/04 10:39:59;;;;;;;15.55;10.73;;;;;;;4.81;100.00;99279.34;4975244;28;20116;-78
2021/12/04 10:42:39;;;;;;;13.40;9.85;;;;;;;4.87;100.00;99270.72;4944735;29;20115;-78
2021/12/04 10:45:05;;;;;;;17.88;9.98;;;;;;;4.82;100.00;99267.53;4971053;28;20039;-78
2021/12/04 10:47:30;;;;;;;15.38;10.85;;;;;;;4.79;100.00;99265.06;4965477;28;20043;-78
2021/12/04 10:53:04;;;;;;;18.33;11.65;;;;;;;4.85;100.00;99244.69;4960448;29;20106;-78
2021/12/04 10:55:49;;;;;;;17.58;11.07;;;;;;;4.78;100.00;99237.06;4972340;28;20054;-79
2021/12/04 11:20:26;;;;;;;24.42;14.73;;;;;;;4.78;100.00;99184.69;4960646;29;20406;-78
2021/12/04 11:22:32;;;;;;;28.40;15.07;;;;;;;4.71;100.00;99181.63;4960167;28;20042;-78
2021/12/04 11:36:42;;;;;;;26.13;16.88;;;;;;;5.01;100.00;99176.50;4955605;29;20027;-79
2021/12/04 11:39:26;;;;;;;24.75;16.00;;;;;;;5.03;100.00;99169.09;4972470;28;20035;-79
2021/12/04 11:42:11;;;;;;;27.88;16.17;;;;;;;5.13;100.00;99175.47;4952101;29;20040;-79
2021/12/04 11:45:26;;;;;;;30.10;17.38;;;;;;;5.10;100.00;99165.75;4964026;29;20137;-79
2021/12/04 11:47:38;;;;;;;;;;;;;;;5.14;100.00;99175.34;4963364;28;20039;-78
2021/12/04 11:50:18;;;;;;;25.30;15.27;;;;;;;5.10;100.00;99157.63;4949370;29;19925;-79
2021/12/04 11:52:50;;;;;;;26.15;16.08;;;;;;;5.22;100.00;99155.72;4975407;28;20299;-79
2021/12/04 11:55:19;;;;;;;24.10;15.73;;;;;;;5.22;100.00;99158.44;4970793;28;20058;-79
2021/12/04 11:57:45;;;;;;;25.50;15.45;;;;;;;5.25;100.00;99150.03;4963405;28;20027;-78
2021/12/04 12:00:31;;;;;;;26.35;15.52;;;;;;;5.33;100.00;99139.38;4979390;28;20023;-79
2021/12/04 12:03:18;;;;;;;26.42;15.07;;;;;;;5.35;100.00;99141.97;4965902;29;20035;-78
2021/12/04 12:05:58;;;;;;;25.75;13.45;;;;;;;5.32;100.00;99140.38;4966696;29;20050;-79
2021/12/04 12:08:26;;;;;;;18.60;12.60;;;;;;;5.40;100.00;99141.59;4960507;29;20031;-79
2021/12/04 12:10:55;;;;;;;26.20;12.73;;;;;;;5.30;100.00;99139.66;4977501;28;20099;-79
2021/12/04 12:13:27;;;;;;;18.58;10.80;;;;;;;5.32;100.00;99136.81;4948211;29;20040;-79
2021/12/04 12:16:06;;;;;;;13.35;8.90;;;;;;;5.23;100.00;99124.91;4958996;29;20108;-78
2021/12/04 12:18:55;;;;;;;17.52;11.40;;;;;;;5.27;100.00;99130.91;4979816;28;20109;-78
2021/12/04 12:21:31;;;;;;;16.58;9.65;;;;;;;5.28;100.00;99129.91;4976546;28;20078;-78
2021/12/04 12:36:03;;;;;;;12.40;8.30;;;;;;;5.04;100.00;99119.31;4981486;28;20094;-79
2021/12/04 12:38:43;;;;;;;20.10;9.17;;;;;;;5.01;100.00;99114.97;4964020;28;20059;-79
2021/12/04 12:41:27;;;;;;;16.58;9.68;;;;;;;4.96;100.00;99112.66;4973364;28;20298;-79
2021/12/04 12:44:03;;;;;;;18.73;11.07;;;;;;;4.96;100.00;99125.38;4965385;28;20042;-80
2021/12/04 12:46:37;;;;;;;21.30;10.60;;;;;;;4.92;100.00;99126.59;4966707;28;20645;-80
2021/12/04 12:49:15;;;;;;;22.98;11.32;;;;;;;4.89;100.00;99114.16;4977386;28;20079;-80
2021/12/04 12:51:43;;;;;;;21.33;12.35;;;;;;;4.92;100.00;99111.19;4960828;29;20028;-79
2021/12/04 12:54:09;;;;;;;20.77;11.80;;;;;;;4.91;100.00;99112.19;4975472;28;20067;-80
2021/12/04 12:56:37;;;;;;;19.17;12.10;;;;;;;4.91;100.00;99109.47;4957588;28;20054;-79
2021/12/04 12:59:19;;;;;;;21.27;12.73;;;;;;;4.89;100.00;99111.47;5001305;28;20175;-80
2021/12/04 13:13:26;;;;;;;25.65;14.88;;;;;;;4.85;100.00;99122.69;4964418;29;20467;-80
2021/12/04 13:16:30;;;;;;;36.30;16.48;;;;;;;4.82;100.00;99117.50;4965846;28;20090;-79
2021/12/04 13:19:03;;;;;;;29.75;16.67;;;;;;;4.84;100.00;99123.66;4965260;28;20043;-79
2021/12/04 13:21:33;;;;;;;30.40;16.63;;;;;;;4.77;100.00;99120.59;4965138;29;20035;-79
2021/12/04 13:23:59;;;;;;;31.92;16.88;;;;;;;4.78;100.00;99109.63;4953336;28;20035;-79
2021/12/04 13:26:28;;;;;;;32.95;18.02;;;;;;;4.83;100.00;99121.97;4980567;28;20479;-79
2021/12/04 13:28:54;;;;;;;30.02;17.30;;;;;;;4.79;100.00;99115.94;4965055;28;20043;-79
2021/12/04 13:31:20;;;;;;;30.88;16.27;;;;;;;4.78;100.00;99115.06;4980127;28;20105;-79
2021/12/04 13:33:50;;;;;;;26.45;15.18;;;;;;;4.75;100.00;99107.16;4971299;28;20067;-79
2021/12/04 13:36:27;;;;;;;24.85;14.57;;;;;;;4.82;100.00;99114.81;4980261;28;20051;-79
2021/12/04 13:38:58;;;;;;;24.55;14.68;;;;;;;4.79;100.00;99108.66;4963698;29;20039;-79
2021/12/04 13:41:24;;;;;;;32.58;16.88;;;;;;;4.82;100.00;99107.56;4964666;29;20082;-79
2021/12/04 13:43:54;;;;;;;26.42;14.90;;;;;;;4.79;100.00;99105.94;4969175;28;20032;-80
2021/12/04 13:46:20;;;;;;;23.75;14.07;;;;;;;4.82;100.00;99103.97;4945457;29;20035;-80
2021/12/04 13:48:45;;;;;;;23.42;14.95;;;;;;;4.79;100.00;99102.38;4961454;29;20083;-80
2021/12/04 13:51:12;;;;;;;23.70;14.45;;;;;;;4.83;100.00;99105.69;4947430;29;20063;-80
2021/12/04 13:53:41;;;;;;;28.42;14.75;;;;;;;4.78;100.00;99108.78;4940517;29;20103;-81
2021/12/04 13:56:11;;;;;;;26.17;13.10;;;;;;;4.79;100.00;99099.66;4967653;28;20034;-80
2021/12/04 13:58:50;;;;;;;25.83;13.52;;;;;;;4.78;100.00;99109.63;4966075;28;20118;-80
2021/12/04 14:01:16;;;;;;;30.20;15.98;;;;;;;4.82;100.00;99110.25;4981437;28;20048;-80
2021/12/04 14:03:43;;;;;;;28.27;14.93;;;;;;;4.74;100.00;99104.63;4969550;29;20034;-80
2021/12/04 14:06:14;;;;;;;27.25;14.25;;;;;;;4.77;100.00;99107.03;4986725;28;20086;-80
2021/12/04 14:08:40;;;;;;;26.33;15.07;;;;;;;4.80;100.00;99117.63;4966838;28;20090;-81
2021/12/04 14:11:06;;;;;;;29.15;15.82;;;;;;;4.81;100.00;99113.94;4963397;28;20035;-80
2021/12/04 14:13:32;;;;;;;24.60;14.23;;;;;;;4.78;100.00;99100.66;4976515;28;20059;-80
2021/12/04 14:15:58;;;;;;;22.83;13.40;;;;;;;4.80;100.00;99109.50;4960654;28;20677;-80
2021/12/04 14:18:26;;;;;;;26.75;13.93;;;;;;;4.81;100.00;99107.69;4978584;28;20035;-80
2021/12/04 14:20:54;;;;;;;22.90;13.02;;;;;;;4.81;100.00;99107.69;4946886;28;20455;-80
2021/12/04 14:23:23;;;;;;;31.95;14.95;;;;;;;4.77;100.00;99107.94;4963542;28;20078;-80
2021/12/04 14:25:54;;;;;;;26.45;15.23;;;;;;;4.82;100.00;99106.66;4963271;28;20038;-79
2021/12/04 14:28:22;;;;;;;32.10;15.63;;;;;;;4.78;100.00;99103.34;4972913;28;20057;-79
2021/12/04 14:30:48;;;;;;;24.52;15.13;;;;;;;4.80;100.00;99106.78;4946998;29;20035;-79
2021/12/04 14:33:19;;;;;;;28.30;15.25;;;;;;;4.82;100.00;99112.97;4963199;29;20093;-79
2021/12/04 14:35:49;;;;;;;26.35;15.18;;;;;;;4.83;100.00;99111.13;4979413;28;20038;-79
2021/12/04 14:38:19;;;;;;;25.05;14.00;;;;;;;4.84;100.00;99113.69;4961330;28;20474;-78
2021/12/04 14:40:48;;;;;;;23.35;13.57;;;;;;;4.84;100.00;99116.41;4978389;28;20505;-78